Time;durP1;ratioP1;P1;durP2;ratioP2;P2;SDS_P1;SDS_P2;PMS_P1;PMS_P2;Temp;Humidity;BMP_temperature;BMP_pressure;BME280_temperature;BME280_humidity;BME280_pressure;Samples;Min_cycle;Max_cycle;Signal;HPM_P1;HPM_P2
2022/10/05 00:01:26;;;;;;;2.40;2.30;;;22.00;44.20;;;;;;5041688;28;20446;-58
2022/10/05 00:04:15;;;;;;;2.07;1.97;;;22.00;44.10;;;;;;5044521;28;20461;-59
2022/10/05 00:06:43;;;;;;;2.43;2.30;;;22.00;44.20;;;;;;5042798;28;20462;-58
2022/10/05 00:09:16;;;;;;;2.10;2.00;;;21.90;44.10;;;;;;5027472;28;20462;-62
2022/10/05 00:11:43;;;;;;;2.37;2.27;;;21.90;44.10;;;;;;5046274;28;20467;-57
2022/10/05 00:14:22;;;;;;;2.60;2.50;;;22.00;44.30;;;;;;5037192;28;23145;-58
2022/10/05 00:16:48;;;;;;;2.70;2.60;;;22.00;44.20;;;;;;5043436;28;20451;-60
2022/10/05 00:19:27;;;;;;;2.23;2.13;;;22.00;44.20;;;;;;5046417;28;20463;-58
2022/10/05 00:21:57;;;;;;;2.40;2.30;;;22.00;44.20;;;;;;5042556;28;20226;-58
2022/10/05 00:24:23;;;;;;;2.30;2.20;;;22.00;44.20;;;;;;5047428;28;20515;-58
2022/10/05 00:26:49;;;;;;;2.40;2.20;;;21.90;44.10;;;;;;5045943;28;20474;-59
2022/10/05 00:29:21;;;;;;;2.10;2.00;;;21.90;44.10;;;;;;5043097;28;20760;-59
2022/10/05 00:31:47;;;;;;;2.20;2.10;;;21.90;44.10;;;;;;5039821;28;20470;-60
2022/10/05 00:34:13;;;;;;;2.60;2.50;;;22.00;44.20;;;;;;5044558;28;20661;-59
2022/10/05 00:36:39;;;;;;;2.40;2.20;;;21.90;44.10;;;;;;5046527;28;20949;-59
2022/10/05 00:39:04;;;;;;;2.40;2.30;;;21.90;44.10;;;;;;5044336;28;20532;-58
2022/10/05 00:42:09;;;;;;;2.70;2.60;;;21.90;44.10;;;;;;5043472;28;20686;-59
2022/10/05 00:44:53;;;;;;;2.83;2.63;;;21.90;44.10;;;;;;5041692;28;20276;-57
2022/10/05 00:47:49;;;;;;;3.27;2.97;;;21.90;44.10;;;;;;5041703;28;20459;-59
2022/10/05 00:50:35;;;;;;;2.67;2.57;;;22.00;44.20;;;;;;5032560;28;20857;-59
2022/10/05 00:53:16;;;;;;;2.60;2.50;;;21.90;44.10;;;;;;5042123;28;20467;-58
2022/10/05 00:55:53;;;;;;;2.13;2.03;;;21.90;44.10;;;;;;5038750;28;20473;-59
2022/10/05 00:58:47;;;;;;;2.30;2.20;;;21.90;44.10;;;;;;5039464;28;20450;-60
2022/10/05 01:01:21;;;;;;;2.33;2.23;;;21.90;44.20;;;;;;5035382;28;20463;-60
2022/10/05 01:03:52;;;;;;;2.10;2.00;;;21.90;44.10;;;;;;5040304;28;20462;-57
2022/10/05 01:06:39;;;;;;;2.33;2.23;;;21.90;44.20;;;;;;5041598;28;20451;-60
2022/10/05 01:09:24;;;;;;;2.63;2.40;;;21.90;44.10;;;;;;5043361;28;20495;-57
2022/10/05 01:12:02;;;;;;;2.63;2.43;;;21.90;44.30;;;;;;5042843;28;20469;-57
2022/10/05 01:14:52;;;;;;;2.20;2.10;;;21.90;44.20;;;;;;5041020;28;20585;-58
2022/10/05 01:17:23;;;;;;;2.20;2.10;;;21.90;44.20;;;;;;5008855;28;20494;-63
2022/10/05 01:20:10;;;;;;;2.20;2.10;;;21.90;44.20;;;;;;5041183;28;20566;-58
2022/10/05 01:23:01;;;;;;;2.73;2.53;;;21.90;44.10;;;;;;5036452;28;20465;-59
2022/10/05 01:25:50;;;;;;;2.47;2.27;;;21.90;44.20;;;;;;5015933;28;20455;-61
2022/10/05 01:28:27;;;;;;;2.20;2.07;;;21.90;44.10;;;;;;5025007;28;20475;-57
2022/10/05 01:31:13;;;;;;;2.90;2.80;;;21.90;44.10;;;;;;5040336;28;20454;-59
2022/10/05 01:34:02;;;;;;;2.43;2.33;;;21.90;44.20;;;;;;5034306;28;20463;-59
2022/10/05 01:36:31;;;;;;;2.67;2.50;;;21.90;44.20;;;;;;5039344;28;20447;-62
2022/10/05 01:39:10;;;;;;;2.43;2.23;;;21.90;44.20;;;;;;5042090;28;20454;-58
2022/10/05 01:41:52;;;;;;;2.20;2.10;;;22.00;44.30;;;;;;5039775;28;20557;-58
2022/10/05 01:44:24;;;;;;;2.70;2.60;;;21.90;44.20;;;;;;5040509;28;20467;-58
2022/10/05 01:47:06;;;;;;;2.23;2.13;;;21.90;44.20;;;;;;5042206;28;20443;-59
2022/10/05 01:49:58;;;;;;;2.37;2.17;;;21.90;44.20;;;;;;5040140;28;20953;-57
2022/10/05 01:52:48;;;;;;;2.50;2.30;;;21.90;44.20;;;;;;5036405;28;20466;-59
2022/10/05 01:55:37;;;;;;;2.40;2.30;;;21.90;44.20;;;;;;5042547;28;20479;-58
2022/10/05 01:58:36;;;;;;;2.40;2.30;;;21.90;44.20;;;;;;5036439;28;20445;-60
2022/10/05 02:01:23;;;;;;;2.63;2.37;;;21.90;44.20;;;;;;5040181;28;20482;-57
2022/10/05 02:04:12;;;;;;;2.50;2.30;;;21.90;44.20;;;;;;5040192;28;20451;-60
2022/10/05 02:06:42;;;;;;;2.37;2.27;;;21.90;44.20;;;;;;5040102;28;21246;-58
2022/10/05 02:09:12;;;;;;;2.30;2.20;;;21.90;44.20;;;;;;5044526;28;20985;-58
2022/10/05 02:11:39;;;;;;;2.50;2.37;;;21.90;44.20;;;;;;5044760;28;20526;-59
2022/10/05 02:14:14;;;;;;;2.70;2.50;;;21.90;44.20;;;;;;5046965;28;20467;-58
2022/10/05 02:16:44;;;;;;;2.30;2.20;;;21.90;44.20;;;;;;5044984;28;20458;-60
2022/10/05 02:19:19;;;;;;;3.00;2.53;;;21.90;44.20;;;;;;5043779;28;20497;-59
2022/10/05 02:22:06;;;;;;;2.20;2.10;;;21.90;44.20;;;;;;5044747;28;20452;-62
2022/10/05 02:24:38;;;;;;;2.20;2.10;;;21.90;44.20;;;;;;5042367;28;20458;-60
2022/10/05 02:27:06;;;;;;;2.60;2.50;;;21.90;44.20;;;;;;5046169;28;20461;-58
2022/10/05 02:29:34;;;;;;;2.67;2.47;;;21.90;44.90;;;;;;5044428;28;20462;-62
2022/10/05 02:32:09;;;;;;;2.50;2.40;;;21.90;44.20;;;;;;5044990;28;20997;-61
2022/10/05 02:34:40;;;;;;;2.50;2.40;;;21.90;44.10;;;;;;5045021;28;20460;-60
2022/10/05 02:37:32;;;;;;;3.07;2.87;;;21.90;44.30;;;;;;5044914;28;20462;-61
2022/10/05 02:40:22;;;;;;;2.83;2.63;;;21.90;44.20;;;;;;5043931;28;20447;-59
2022/10/05 02:43:03;;;;;;;2.40;2.30;;;21.90;44.20;;;;;;5041597;28;20545;-58
2022/10/05 02:45:36;;;;;;;2.50;2.40;;;21.90;44.20;;;;;;5039450;28;20450;-60
2022/10/05 02:48:28;;;;;;;2.47;2.37;;;21.90;44.20;;;;;;5043074;28;20467;-58
2022/10/05 02:51:25;;;;;;;2.10;2.00;;;21.90;44.10;;;;;;5049690;28;20989;-59
2022/10/05 02:54:09;;;;;;;2.80;2.60;;;21.90;44.20;;;;;;5044005;28;20548;-58
2022/10/05 02:56:53;;;;;;;2.60;2.50;;;21.90;44.20;;;;;;5046915;28;20517;-58
2022/10/05 02:59:48;;;;;;;2.30;2.03;;;21.90;44.20;;;;;;5045238;28;20972;-59
2022/10/05 03:02:39;;;;;;;2.60;2.50;;;21.90;44.20;;;;;;5045002;28;20474;-62
2022/10/05 03:05:22;;;;;;;2.60;2.40;;;21.90;44.20;;;;;;5045669;28;21029;-62
2022/10/05 03:08:05;;;;;;;2.57;2.47;;;21.90;44.20;;;;;;5017991;28;20493;-60
2022/10/05 03:10:36;;;;;;;2.43;2.30;;;21.90;44.20;;;;;;5045042;28;20488;-59
2022/10/05 03:13:15;;;;;;;2.47;2.37;;;21.90;44.30;;;;;;5042968;28;20991;-58
2022/10/05 03:15:55;;;;;;;2.40;2.30;;;21.90;44.20;;;;;;5042380;28;20485;-62
2022/10/05 03:18:23;;;;;;;2.30;2.20;;;21.90;44.20;;;;;;5039903;28;20592;-57
2022/10/05 03:21:18;;;;;;;2.20;2.10;;;21.90;44.20;;;;;;5042376;28;20516;-62
2022/10/05 03:24:11;;;;;;;2.53;2.43;;;21.90;44.20;;;;;;5039570;28;20486;-59
2022/10/05 03:27:09;;;;;;;2.53;2.43;;;21.90;44.20;;;;;;5041777;28;20458;-58
2022/10/05 03:29:59;;;;;;;2.80;2.70;;;21.90;44.20;;;;;;5041163;28;20470;-58
2022/10/05 03:32:33;;;;;;;2.50;2.40;;;21.90;44.20;;;;;;5023122;28;20835;-59
2022/10/05 03:35:24;;;;;;;3.03;2.83;;;21.90;44.30;;;;;;5042183;28;20443;-60
2022/10/05 03:38:23;;;;;;;2.57;2.47;;;21.90;44.20;;;;;;5039279;28;20477;-60
2022/10/05 03:41:25;;;;;;;2.60;2.40;;;21.90;44.30;;;;;;5040863;28;20451;-58
2022/10/05 03:44:19;;;;;;;2.10;2.00;;;21.90;44.30;;;;;;5039209;28;20949;-58
2022/10/05 03:46:56;;;;;;;2.60;2.50;;;21.90;44.30;;;;;;5042398;28;20458;-60
2022/10/05 03:50:02;;;;;;;3.00;2.80;;;21.90;44.30;;;;;;5042533;28;20542;-57
2022/10/05 03:52:38;;;;;;;2.53;2.40;;;21.90;44.30;;;;;;4986872;28;21004;-63
2022/10/05 03:55:34;;;;;;;3.13;2.93;;;21.90;44.20;;;;;;5043595;28;20468;-60
2022/10/05 03:58:13;;;;;;;2.17;2.07;;;21.90;44.30;;;;;;5040773;28;20471;-60
2022/10/05 04:00:43;;;;;;;2.23;2.13;;;21.90;44.30;;;;;;5041637;28;20462;-59
2022/10/05 04:03:29;;;;;;;2.40;2.20;;;21.90;44.30;;;;;;5041537;28;20616;-59
2022/10/05 04:06:01;;;;;;;3.00;2.80;;;21.90;44.30;;;;;;5040403;28;20816;-60
2022/10/05 04:09:02;;;;;;;2.40;2.30;;;21.90;44.20;;;;;;5038001;28;20459;-60
2022/10/05 04:11:30;;;;;;;2.10;2.00;;;21.90;44.20;;;;;;5043671;28;20446;-59
2022/10/05 04:14:13;;;;;;;2.63;2.50;;;21.90;44.30;;;;;;5039634;28;20487;-61
2022/10/05 04:16:44;;;;;;;2.47;2.37;;;21.90;44.20;;;;;;5036938;28;20459;-58
2022/10/05 04:19:31;;;;;;;2.63;2.53;;;21.90;44.30;;;;;;5040605;28;20460;-58
2022/10/05 04:22:14;;;;;;;2.73;2.53;;;21.90;44.30;;;;;;5016419;28;20827;-58
2022/10/05 04:25:01;;;;;;;2.63;2.43;;;21.90;44.30;;;;;;5040783;28;20471;-62
2022/10/05 04:27:40;;;;;;;2.70;2.60;;;21.90;44.30;;;;;;5043863;28;20457;-61
2022/10/05 04:30:14;;;;;;;2.67;2.57;;;21.90;44.30;;;;;;5035120;28;20512;-62
2022/10/05 04:32:56;;;;;;;2.70;2.60;;;21.90;44.20;;;;;;5040868;28;20469;-60
2022/10/05 04:35:51;;;;;;;3.07;2.87;;;21.90;44.20;;;;;;5039835;28;20962;-59
2022/10/05 04:39:01;;;;;;;2.47;2.30;;;22.00;44.30;;;;;;5034097;28;20443;-58
2022/10/05 04:41:52;;;;;;;2.43;2.33;;;22.00;44.20;;;;;;5033140;28;20451;-64
2022/10/05 04:44:49;;;;;;;2.23;2.13;;;22.00;44.10;;;;;;5034378;28;20491;-62
2022/10/05 04:47:28;;;;;;;2.63;2.43;;;22.00;44.10;;;;;;5029022;28;20497;-60
2022/10/05 04:49:59;;;;;;;2.20;2.10;;;22.00;44.10;;;;;;5035031;28;20467;-59
2022/10/05 04:52:49;;;;;;;2.50;2.40;;;22.00;44.10;;;;;;5035507;28;20904;-59
2022/10/05 04:55:36;;;;;;;2.30;2.20;;;22.00;44.10;;;;;;5036361;28;20467;-62
2022/10/05 04:58:20;;;;;;;2.73;2.47;;;22.00;44.00;;;;;;5034244;28;20459;-59
2022/10/05 05:01:14;;;;;;;2.63;2.43;;;22.00;44.10;;;;;;5033437;28;20451;-59
2022/10/05 05:04:02;;;;;;;2.37;2.23;;;22.00;44.10;;;;;;5036502;28;20463;-60
2022/10/05 05:06:31;;;;;;;2.40;2.30;;;22.10;44.10;;;;;;5033988;28;20505;-59
2022/10/05 05:08:57;;;;;;;2.37;2.27;;;22.00;44.10;;;;;;5034242;28;20454;-60
2022/10/05 05:11:59;;;;;;;2.60;2.40;;;22.10;44.20;;;;;;5035009;28;20447;-58
2022/10/05 05:14:40;;;;;;;2.87;2.77;;;22.10;44.10;;;;;;4997232;28;20230;-58
2022/10/05 05:17:12;;;;;;;2.47;2.37;;;22.10;44.20;;;;;;5033631;28;20518;-58
2022/10/05 05:20:07;;;;;;;2.20;2.10;;;22.10;44.20;;;;;;5030036;28;20883;-63
2022/10/05 05:22:55;;;;;;;2.20;2.00;;;22.10;44.20;;;;;;5032728;28;20455;-58
2022/10/05 05:25:45;;;;;;;2.80;2.70;;;22.10;44.20;;;;;;5035103;28;20455;-58
2022/10/05 05:28:32;;;;;;;2.53;2.40;;;22.10;44.10;;;;;;5029429;28;20454;-64
2022/10/05 05:31:14;;;;;;;3.03;2.83;;;22.10;44.20;;;;;;5017962;28;20462;-62
2022/10/05 05:34:09;;;;;;;2.60;2.50;;;22.00;44.10;;;;;;5029950;28;20470;-59
2022/10/05 05:36:59;;;;;;;4.33;2.40;;;22.10;44.20;;;;;;5018578;28;20474;-59
2022/10/05 05:39:36;;;;;;;2.30;2.20;;;22.10;44.20;;;;;;5030194;28;20551;-63
2022/10/05 05:42:26;;;;;;;2.10;2.00;;;22.10;44.20;;;;;;5031333;28;20458;-60
2022/10/05 05:44:54;;;;;;;2.30;2.20;;;22.10;44.20;;;;;;5038638;28;20845;-56
2022/10/05 05:47:33;;;;;;;2.47;2.37;;;22.10;44.20;;;;;;5035703;28;21172;-60
2022/10/05 05:50:21;;;;;;;2.20;2.10;;;22.10;44.20;;;;;;5032044;28;23938;-60
2022/10/05 05:52:55;;;;;;;2.10;2.00;;;22.10;44.20;;;;;;5032244;28;20471;-58
2022/10/05 05:55:26;;;;;;;2.33;2.23;;;22.10;44.20;;;;;;5033388;28;20472;-59
2022/10/05 05:58:10;;;;;;;2.50;2.40;;;22.10;44.20;;;;;;5032915;28;20455;-62
2022/10/05 06:00:41;;;;;;;2.37;2.27;;;22.10;44.10;;;;;;5036450;28;21045;-57
2022/10/05 06:03:19;;;;;;;2.50;2.40;;;22.10;44.10;;;;;;5038818;28;20482;-58
2022/10/05 06:05:58;;;;;;;2.17;2.07;;;22.10;44.20;;;;;;5031599;28;20558;-62
2022/10/05 06:08:43;;;;;;;2.40;2.30;;;22.10;44.20;;;;;;5037255;28;20450;-59
2022/10/05 06:11:27;;;;;;;2.50;2.30;;;22.10;44.10;;;;;;5031428;28;20459;-60
2022/10/05 06:13:56;;;;;;;2.37;2.27;;;22.10;44.20;;;;;;5032617;28;20466;-61
2022/10/05 06:16:27;;;;;;;2.60;2.50;;;22.10;44.20;;;;;;5030862;28;20781;-58
2022/10/05 06:18:57;;;;;;;2.57;2.37;;;22.10;44.20;;;;;;5033020;28;20451;-58
2022/10/05 06:21:43;;;;;;;2.30;2.20;;;22.10;44.20;;;;;;5030018;28;20485;-60
2022/10/05 06:24:22;;;;;;;2.50;2.40;;;22.10;44.30;;;;;;5030101;28;20853;-58
2022/10/05 06:27:15;;;;;;;2.23;2.13;;;22.10;44.20;;;;;;5035621;28;20455;-61
2022/10/05 06:30:07;;;;;;;2.27;2.17;;;22.10;44.20;;;;;;5036545;28;20451;-58
2022/10/05 06:32:35;;;;;;;2.10;2.00;;;22.10;44.10;;;;;;5029541;28;20459;-58
2022/10/05 06:35:21;;;;;;;2.53;2.43;;;22.10;44.20;;;;;;5035010;28;20915;-59
2022/10/05 06:37:52;;;;;;;2.20;2.10;;;22.10;44.20;;;;;;5035348;28;20479;-60
2022/10/05 06:40:50;;;;;;;2.30;2.07;;;22.10;44.20;;;;;;5037185;28;20467;-59
2022/10/05 06:43:54;;;;;;;2.20;2.10;;;22.10;44.20;;;;;;4999375;28;20450;-63
2022/10/05 06:46:30;;;;;;;2.27;2.17;;;22.10;44.30;;;;;;4953623;28;20480;-57
2022/10/05 06:49:18;;;;;;;2.23;2.13;;;22.10;44.20;;;;;;5030272;28;20454;-57
2022/10/05 06:52:27;;;;;;;3.47;3.27;;;22.10;44.20;;;;;;5045013;28;20951;-57
2022/10/05 06:54:58;;;;;;;2.50;2.40;;;22.10;44.20;;;;;;5046537;28;20563;-58
2022/10/05 06:57:46;;;;;;;3.10;2.13;;;22.10;44.20;;;;;;5040038;28;20965;-57
2022/10/05 07:00:21;;;;;;;2.50;2.40;;;22.10;44.20;;;;;;5045193;28;20458;-64
2022/10/05 07:02:53;;;;;;;2.13;2.03;;;22.10;44.20;;;;;;5035403;28;20989;-61
2022/10/05 07:05:41;;;;;;;2.37;2.17;;;22.10;44.20;;;;;;5040749;28;20463;-60
2022/10/05 07:08:12;;;;;;;2.43;2.30;;;22.10;44.20;;;;;;5036071;28;20797;-60
2022/10/05 07:10:37;;;;;;;2.20;2.10;;;22.10;44.20;;;;;;5033324;28;20470;-60
2022/10/05 07:13:12;;;;;;;2.40;2.30;;;22.10;44.20;;;;;;5034699;28;20832;-58
2022/10/05 07:15:45;;;;;;;2.20;2.10;;;22.10;44.20;;;;;;5031022;28;20643;-61
2022/10/05 07:18:24;;;;;;;2.03;1.93;;;22.10;44.20;;;;;;5035320;28;20502;-61
2022/10/05 07:21:14;;;;;;;2.10;2.00;;;22.10;44.20;;;;;;5032533;28;20471;-62
2022/10/05 07:24:02;;;;;;;2.00;1.90;;;22.10;44.10;;;;;;5032150;28;20478;-59
2022/10/05 07:26:33;;;;;;;2.40;2.30;;;22.10;44.20;;;;;;5034863;28;20451;-59
2022/10/05 07:29:29;;;;;;;2.47;2.27;;;22.10;44.20;;;;;;5035283;28;20467;-63
2022/10/05 07:32:34;;;;;;;2.00;1.90;;;22.10;44.20;;;;;;5034013;28;20577;-61
2022/10/05 07:37:53;;;;;;;1.83;1.73;;;22.10;44.20;;;;;;5017362;28;20445;-62
2022/10/05 07:38:06;;;;;;;1.83;1.73;;;22.10;44.20;;;;;;5032240;28;20460;-58
2022/10/05 07:40:38;;;;;;;2.57;2.47;;;22.10;44.20;;;;;;5034618;28;20467;-58
2022/10/05 07:43:32;;;;;;;2.30;2.20;;;22.10;44.20;;;;;;5027923;28;20797;-65
2022/10/05 07:46:09;;;;;;;2.20;2.10;;;22.10;44.20;;;;;;5036582;28;20454;-60
2022/10/05 07:48:58;;;;;;;2.27;2.17;;;22.10;44.10;;;;;;5049076;28;20783;-63
2022/10/05 07:51:29;;;;;;;2.20;2.00;;;22.10;44.20;;;;;;5035597;28;20446;-62
2022/10/05 07:54:12;;;;;;;2.03;1.93;;;22.10;44.20;;;;;;5037153;28;21201;-64
2022/10/05 07:56:44;;;;;;;2.33;2.23;;;22.10;44.20;;;;;;5034882;28;22190;-58
2022/10/05 07:59:29;;;;;;;2.10;2.00;;;22.10;44.20;;;;;;5032062;28;20997;-61
2022/10/05 08:02:09;;;;;;;2.23;2.13;;;22.10;44.10;;;;;;5034633;28;20525;-62
2022/10/05 08:04:50;;;;;;;2.23;1.97;;;22.10;44.20;;;;;;5034814;28;21033;-61
2022/10/05 08:07:16;;;;;;;1.80;1.70;;;22.10;44.20;;;;;;5035720;28;20972;-60
2022/10/05 08:10:01;;;;;;;2.13;2.03;;;22.10;44.20;;;;;;5038768;28;20455;-62
2022/10/05 08:13:06;;;;;;;1.90;1.80;;;22.10;44.20;;;;;;5040312;28;20460;-59
2022/10/05 08:15:46;;;;;;;2.10;2.00;;;22.10;44.20;;;;;;4974209;28;20559;-64
2022/10/05 08:18:41;;;;;;;2.17;2.07;;;22.10;44.30;;;;;;5032364;28;20992;-59
2022/10/05 08:21:10;;;;;;;2.20;2.10;;;22.10;44.20;;;;;;5038607;28;20512;-58
2022/10/05 08:23:57;;;;;;;2.27;2.10;;;22.00;44.10;;;;;;5035645;28;20482;-60
2022/10/05 08:26:49;;;;;;;1.90;1.80;;;22.10;44.30;;;;;;5028283;28;20975;-60
2022/10/05 08:29:50;;;;;;;2.03;1.93;;;22.10;44.30;;;;;;5029727;28;20468;-58
2022/10/05 08:32:24;;;;;;;2.20;2.10;;;22.00;44.20;;;;;;4968564;28;20555;-58
2022/10/05 08:35:01;;;;;;;1.80;1.70;;;22.00;44.20;;;;;;5017669;28;20476;-60
2022/10/05 08:37:38;;;;;;;1.80;1.70;;;22.00;44.20;;;;;;5029113;28;20468;-61
2022/10/05 08:40:24;;;;;;;2.03;1.93;;;22.00;44.20;;;;;;5029047;28;20462;-65
2022/10/05 08:43:21;;;;;;;1.90;1.80;;;22.10;44.30;;;;;;5034375;28;20993;-61
2022/10/05 08:45:56;;;;;;;2.10;2.00;;;22.00;44.20;;;;;;5035303;28;20463;-60
2022/10/05 08:48:43;;;;;;;1.70;1.60;;;22.00;44.20;;;;;;5033174;28;21079;-58
2022/10/05 08:51:14;;;;;;;2.13;2.03;;;22.00;44.20;;;;;;5038503;28;20463;-58
2022/10/05 08:53:58;;;;;;;2.03;1.93;;;22.00;44.20;;;;;;5035345;28;20467;-63
2022/10/05 08:56:42;;;;;;;1.80;1.70;;;22.00;44.20;;;;;;5035565;28;20443;-61
2022/10/05 08:59:58;;;;;;;1.77;1.67;;;22.00;44.20;;;;;;5030309;28;20532;-64
2022/10/05 09:02:42;;;;;;;2.73;2.10;;;22.00;44.30;;;;;;4974767;28;20467;-62
2022/10/05 09:05:44;;;;;;;1.70;1.60;;;22.00;44.30;;;;;;5027764;28;20482;-59
2022/10/05 09:08:37;;;;;;;1.80;1.70;;;22.00;44.20;;;;;;5027393;28;20463;-58
2022/10/05 09:11:19;;;;;;;1.90;1.80;;;22.10;44.30;;;;;;5027958;28;20462;-61
2022/10/05 09:14:11;;;;;;;2.10;1.90;;;22.00;44.20;;;;;;5029089;28;20507;-62
2022/10/05 09:17:04;;;;;;;1.93;1.83;;;22.00;44.20;;;;;;5035216;28;20442;-65
2022/10/05 09:19:50;;;;;;;1.70;1.60;;;22.00;44.20;;;;;;5037280;28;20522;-64
2022/10/05 09:22:37;;;;;;;1.87;1.77;;;22.00;44.30;;;;;;5036967;28;20475;-64
2022/10/05 09:25:30;;;;;;;2.90;1.80;;;22.00;44.20;;;;;;5034744;28;20879;-61
2022/10/05 09:28:11;;;;;;;2.33;2.23;;;22.00;44.20;;;;;;5033361;28;20459;-64
2022/10/05 09:30:54;;;;;;;1.90;1.80;;;22.00;44.20;;;;;;5026125;28;20459;-64
2022/10/05 09:33:56;;;;;;;1.73;1.63;;;22.00;44.30;;;;;;5028714;28;20467;-65
2022/10/05 09:36:37;;;;;;;2.00;1.90;;;22.00;44.30;;;;;;5027802;28;20496;-61
2022/10/05 09:39:31;;;;;;;1.87;1.77;;;22.00;44.30;;;;;;5027191;28;20950;-61
2022/10/05 09:42:14;;;;;;;2.13;2.03;;;22.00;44.20;;;;;;5024447;28;20466;-61
2022/10/05 09:44:59;;;;;;;2.10;2.00;;;22.10;44.40;;;;;;5025373;28;20458;-59
2022/10/05 09:48:06;;;;;;;1.80;1.70;;;22.00;44.20;;;;;;5031578;28;20451;-65
2022/10/05 09:50:46;;;;;;;2.03;1.93;;;22.00;44.30;;;;;;5019618;28;20504;-61
2022/10/05 09:53:31;;;;;;;1.70;1.60;;;22.00;44.30;;;;;;5026309;28;20478;-64
2022/10/05 09:56:14;;;;;;;1.70;1.60;;;22.00;44.30;;;;;;5028920;28;20466;-60
2022/10/05 09:59:06;;;;;;;1.73;1.63;;;22.00;44.30;;;;;;5032735;28;20533;-64
2022/10/05 10:01:58;;;;;;;1.50;1.40;;;22.00;44.30;;;;;;5040475;28;20461;-59
2022/10/05 10:05:00;;;;;;;2.27;2.10;;;22.00;44.20;;;;;;5037257;28;20473;-61
2022/10/05 10:07:44;;;;;;;2.40;2.20;;;22.00;44.30;;;;;;5038102;28;20450;-59
2022/10/05 10:10:34;;;;;;;1.70;1.60;;;22.00;44.30;;;;;;5038030;28;20474;-62
2022/10/05 10:13:38;;;;;;;2.37;2.00;;;22.00;44.30;;;;;;5032155;28;20513;-62
2022/10/05 10:16:48;;;;;;;1.60;1.50;;;22.00;44.20;;;;;;5054741;28;20457;-58
2022/10/05 10:19:46;;;;;;;1.80;1.70;;;22.00;44.30;;;;;;5018890;28;20471;-58
2022/10/05 10:22:20;;;;;;;1.70;1.60;;;22.00;44.30;;;;;;5023433;28;20581;-61
2022/10/05 10:25:05;;;;;;;1.90;1.70;;;22.00;44.30;;;;;;5034514;28;20486;-61
2022/10/05 10:27:48;;;;;;;1.90;1.80;;;22.00;44.30;;;;;;5029924;28;21187;-66
2022/10/05 10:31:11;;;;;;;1.40;1.30;;;22.00;44.30;;;;;;5033215;28;20470;-58
2022/10/05 10:34:27;;;;;;;1.60;1.50;;;22.00;44.30;;;;;;4928533;28;20467;-61
2022/10/05 10:37:23;;;;;;;1.90;1.80;;;22.00;44.30;;;;;;4930154;28;21050;-66
2022/10/05 10:40:24;;;;;;;2.30;1.57;;;22.00;44.20;;;;;;5031141;28;20659;-59
2022/10/05 10:43:21;;;;;;;1.50;1.40;;;22.00;44.30;;;;;;5031314;28;20467;-60
2022/10/05 10:46:24;;;;;;;1.83;1.73;;;22.00;44.30;;;;;;4990196;28;20467;-58
2022/10/05 10:49:09;;;;;;;1.70;1.60;;;22.00;44.30;;;;;;5030037;28;20461;-60
2022/10/05 10:51:48;;;;;;;1.87;1.37;;;22.00;44.30;;;;;;5027290;28;20463;-61
2022/10/05 10:54:35;;;;;;;1.87;1.77;;;22.00;44.30;;;;;;5029237;28;20982;-62
2022/10/05 10:57:22;;;;;;;1.70;1.60;;;22.00;44.30;;;;;;5032503;28;20532;-60
2022/10/05 11:00:18;;;;;;;1.77;1.67;;;22.00;44.30;;;;;;5029771;28;20463;-62
2022/10/05 11:03:03;;;;;;;1.30;1.20;;;22.00;44.30;;;;;;5030928;28;20513;-62
2022/10/05 11:05:45;;;;;;;1.70;1.60;;;22.00;44.30;;;;;;5029477;28;20534;-59
2022/10/05 11:08:45;;;;;;;1.63;1.53;;;22.00;44.30;;;;;;5030817;28;20461;-58
2022/10/05 11:11:57;;;;;;;1.80;1.70;;;22.00;44.20;;;;;;5032447;28;21051;-59
2022/10/05 11:14:54;;;;;;;1.50;1.40;;;22.00;44.30;;;;;;5031061;28;20567;-58
2022/10/05 11:18:14;;;;;;;1.43;1.33;;;22.00;44.30;;;;;;5031564;28;20443;-62
2022/10/05 11:21:20;;;;;;;1.50;1.40;;;22.00;44.30;;;;;;4927431;28;20883;-64
2022/10/05 11:24:13;;;;;;;1.50;1.40;;;22.00;44.20;;;;;;4974893;28;20484;-60
2022/10/05 11:27:02;;;;;;;1.47;1.37;;;22.00;44.20;;;;;;4991292;28;21007;-61
2022/10/05 11:29:51;;;;;;;1.40;1.30;;;22.00;44.10;;;;;;4992278;28;20472;-59
2022/10/05 11:32:59;;;;;;;1.50;1.40;;;22.10;44.20;;;;;;4992708;28;21447;-59
2022/10/05 11:35:45;;;;;;;1.53;1.43;;;22.10;44.20;;;;;;4994215;28;20545;-60
2022/10/05 11:38:27;;;;;;;1.60;1.40;;;22.10;44.10;;;;;;4988597;28;20461;-58
2022/10/05 11:41:04;;;;;;;1.27;1.17;;;22.10;44.20;;;;;;4996684;28;21154;-59
2022/10/05 11:43:48;;;;;;;1.40;1.30;;;22.10;44.20;;;;;;5004243;28;20444;-62
2022/10/05 11:46:31;;;;;;;1.50;1.40;;;22.10;44.20;;;;;;5003667;28;20543;-60
2022/10/05 11:49:20;;;;;;;1.50;1.40;;;22.10;44.20;;;;;;5002739;28;20498;-62
2022/10/05 11:51:52;;;;;;;1.60;1.50;;;22.10;44.20;;;;;;5004291;28;21863;-59
2022/10/05 11:54:56;;;;;;;4.00;1.57;;;22.10;44.20;;;;;;4997727;28;20476;-59
2022/10/05 11:57:22;;;;;;;1.40;1.30;;;22.10;44.20;;;;;;4997164;28;20456;-58
2022/10/05 11:59:58;;;;;;;1.50;1.40;;;22.10;44.10;;;;;;5000769;28;20475;-64
2022/10/05 12:02:58;;;;;;;1.30;1.20;;;22.10;44.20;;;;;;5001671;28;20222;-62
2022/10/05 12:06:01;;;;;;;1.47;1.37;;;22.10;44.10;;;;;;5001780;28;20468;-62
2022/10/05 12:08:39;;;;;;;1.57;1.47;;;22.20;44.20;;;;;;5000560;28;21132;-58
2022/10/05 12:11:34;;;;;;;1.30;1.20;;;22.10;44.20;;;;;;4996957;28;20464;-62
2022/10/05 12:14:32;;;;;;;1.50;1.40;;;22.10;44.20;;;;;;4996185;28;20476;-64
2022/10/05 12:17:14;;;;;;;1.60;1.50;;;22.10;44.10;;;;;;5007613;28;20483;-59
2022/10/05 12:19:47;;;;;;;1.60;1.50;;;22.10;44.10;;;;;;5004205;28;20506;-58
2022/10/05 12:22:23;;;;;;;1.40;1.30;;;22.10;44.10;;;;;;5006427;28;20513;-58
2022/10/05 12:25:00;;;;;;;1.63;1.53;;;22.20;44.20;;;;;;5034887;28;20481;-60
2022/10/05 12:27:30;;;;;;;1.30;1.20;;;22.20;44.20;;;;;;5033223;28;20883;-60
2022/10/05 12:30:22;;;;;;;1.40;1.30;;;22.20;44.20;;;;;;5032948;28;20459;-59
2022/10/05 12:33:05;;;;;;;1.30;1.20;;;22.20;44.10;;;;;;5021614;28;20478;-58
2022/10/05 12:35:39;;;;;;;1.37;1.27;;;22.20;44.10;;;;;;5031356;28;20451;-61
2022/10/05 12:38:29;;;;;;;3.93;1.20;;;22.20;44.10;;;;;;5033433;28;20512;-61
2022/10/05 12:41:21;;;;;;;1.57;1.47;;;22.20;44.10;;;;;;5035138;28;20463;-60
2022/10/05 12:44:01;;;;;;;1.20;1.10;;;22.20;44.20;;;;;;5033267;28;20463;-57
2022/10/05 12:46:39;;;;;;;1.53;1.43;;;22.20;44.10;;;;;;5032652;28;20546;-60
2022/10/05 12:49:17;;;;;;;1.50;1.40;;;22.20;44.10;;;;;;5032230;28;20533;-60
2022/10/05 12:51:54;;;;;;;1.30;1.20;;;22.20;44.10;;;;;;5034140;28;20467;-59
2022/10/05 12:54:31;;;;;;;1.43;1.33;;;22.20;44.10;;;;;;5031613;28;20446;-60
2022/10/05 12:57:04;;;;;;;1.40;1.30;;;22.20;44.10;;;;;;5032248;28;21140;-58
2022/10/05 12:59:35;;;;;;;13.03;1.90;;;22.20;44.10;;;;;;5029490;28;20970;-61
2022/10/05 13:02:33;;;;;;;1.50;1.40;;;22.20;44.20;;;;;;5029017;28;20462;-60
2022/10/05 13:05:07;;;;;;;1.20;1.10;;;22.20;44.10;;;;;;5034242;28;20473;-62
2022/10/05 13:07:48;;;;;;;5.60;1.37;;;22.20;44.10;;;;;;5029320;28;20463;-59
2022/10/05 13:10:26;;;;;;;2.20;1.70;;;22.20;44.20;;;;;;5027875;28;20458;-60
2022/10/05 13:13:11;;;;;;;1.30;1.20;;;22.30;44.20;;;;;;5032495;28;20462;-59
2022/10/05 13:15:53;;;;;;;2.03;1.27;;;22.20;44.00;;;;;;5033013;28;20498;-62
2022/10/05 13:18:27;;;;;;;1.53;1.43;;;22.20;44.00;;;;;;5031785;28;21092;-60
2022/10/05 13:21:04;;;;;;;1.20;1.10;;;22.30;44.10;;;;;;5030427;28;21008;-63
2022/10/05 13:23:49;;;;;;;3.90;1.40;;;22.30;44.10;;;;;;5028795;28;20550;-62
2022/10/05 13:26:24;;;;;;;1.43;1.33;;;22.30;44.00;;;;;;5035723;28;20970;-62
2022/10/05 13:29:21;;;;;;;3.10;1.40;;;22.30;44.00;;;;;;5028689;28;20547;-61
2022/10/05 13:31:59;;;;;;;1.30;1.20;;;22.40;44.00;;;;;;5030910;28;20470;-60
2022/10/05 13:34:36;;;;;;;1.30;1.20;;;22.40;43.90;;;;;;5028868;28;20794;-60
2022/10/05 13:37:12;;;;;;;2.60;1.27;;;22.40;44.00;;;;;;5025184;28;20502;-65
2022/10/05 13:39:43;;;;;;;1.50;1.40;;;22.40;43.90;;;;;;5026776;28;21174;-63
2022/10/05 13:42:09;;;;;;;1.37;1.27;;;22.40;43.80;;;;;;5024159;28;20580;-63
2022/10/05 13:44:47;;;;;;;1.30;1.20;;;22.40;43.80;;;;;;5027066;28;20467;-61
2022/10/05 13:47:30;;;;;;;1.30;1.20;;;22.50;43.80;;;;;;5025709;28;20229;-62
2022/10/05 13:50:02;;;;;;;1.30;1.20;;;22.40;43.70;;;;;;5022993;28;20509;-63
2022/10/05 13:52:52;;;;;;;2.10;1.53;;;22.50;43.80;;;;;;5022289;28;21177;-63
2022/10/05 13:55:39;;;;;;;1.40;1.30;;;22.50;43.80;;;;;;5022392;28;20478;-62
2022/10/05 13:58:28;;;;;;;2.93;1.40;;;22.50;43.80;;;;;;5024385;28;20449;-65
2022/10/05 14:00:57;;;;;;;1.60;1.50;;;22.50;43.80;;;;;;5025258;28;20567;-61
2022/10/05 14:03:23;;;;;;;1.30;1.20;;;22.50;43.80;;;;;;5026937;28;20454;-63
2022/10/05 14:05:56;;;;;;;1.73;1.20;;;22.50;43.70;;;;;;5030031;28;20961;-61
2022/10/05 14:08:27;;;;;;;1.40;1.30;;;22.50;43.70;;;;;;5034599;28;20512;-61
2022/10/05 14:10:54;;;;;;;1.30;1.20;;;22.50;43.60;;;;;;5037899;28;20813;-61
2022/10/05 14:13:28;;;;;;;2.37;1.23;;;22.60;43.60;;;;;;5027340;28;20478;-64